sensor_id;sensor_type;location;lat;lon;timestamp;P1;durP1;ratioP1;P2;durP2;ratioP2
11653;SDS011;5883;48.818;9.114;2023-07-29T00:00:07;2.25;;;1.17;;
11653;SDS011;5883;48.818;9.114;2023-07-29T00:02:53;2.08;;;1.52;;
11653;SDS011;5883;48.818;9.114;2023-07-29T00:05:40;1.40;;;1.20;;
11653;SDS011;5883;48.818;9.114;2023-07-29T00:08:25;1.20;;;1.10;;
11653;SDS011;5883;48.818;9.114;2023-07-29T00:11:10;1.20;;;1.10;;
11653;SDS011;5883;48.818;9.114;2023-07-29T00:13:55;2.40;;;1.10;;
11653;SDS011;5883;48.818;9.114;2023-07-29T00:16:40;1.10;;;1.00;;
11653;SDS011;5883;48.818;9.114;2023-07-29T00:19:26;3.40;;;1.33;;
11653;SDS011;5883;48.818;9.114;2023-07-29T00:22:13;2.30;;;1.27;;
11653;SDS011;5883;48.818;9.114;2023-07-29T00:24:59;1.67;;;1.10;;
11653;SDS011;5883;48.818;9.114;2023-07-29T00:27:44;1.38;;;1.27;;
11653;SDS011;5883;48.818;9.114;2023-07-29T00:30:29;2.78;;;1.25;;
11653;SDS011;5883;48.818;9.114;2023-07-29T00:33:14;2.47;;;1.23;;
11653;SDS011;5883;48.818;9.114;2023-07-29T00:35:59;1.30;;;1.20;;
11653;SDS011;5883;48.818;9.114;2023-07-29T00:38:46;1.35;;;1.25;;
11653;SDS011;5883;48.818;9.114;2023-07-29T00:41:32;2.10;;;1.13;;
11653;SDS011;5883;48.818;9.114;2023-07-29T00:44:17;2.22;;;1.20;;
11653;SDS011;5883;48.818;9.114;2023-07-29T00:47:03;1.52;;;1.02;;
11653;SDS011;5883;48.818;9.114;2023-07-29T00:49:50;5.03;;;1.23;;
11653;SDS011;5883;48.818;9.114;2023-07-29T00:52:36;4.55;;;1.33;;
11653;SDS011;5883;48.818;9.114;2023-07-29T00:55:22;4.78;;;1.30;;
11653;SDS011;5883;48.818;9.114;2023-07-29T00:58:07;1.52;;;1.30;;
11653;SDS011;5883;48.818;9.114;2023-07-29T01:00:52;3.80;;;1.20;;
11653;SDS011;5883;48.818;9.114;2023-07-29T01:03:38;2.53;;;1.25;;
11653;SDS011;5883;48.818;9.114;2023-07-29T01:06:23;1.20;;;1.00;;
11653;SDS011;5883;48.818;9.114;2023-07-29T01:09:14;1.30;;;1.20;;
11653;SDS011;5883;48.818;9.114;2023-07-29T01:12:05;1.40;;;1.30;;
11653;SDS011;5883;48.818;9.114;2023-07-29T01:14:54;2.72;;;1.30;;
11653;SDS011;5883;48.818;9.114;2023-07-29T01:17:42;1.83;;;1.38;;
11653;SDS011;5883;48.818;9.114;2023-07-29T01:20:27;3.97;;;1.45;;
11653;SDS011;5883;48.818;9.114;2023-07-29T01:23:12;1.45;;;1.35;;
11653;SDS011;5883;48.818;9.114;2023-07-29T01:25:59;1.63;;;1.30;;
11653;SDS011;5883;48.818;9.114;2023-07-29T01:28:44;1.63;;;1.30;;
11653;SDS011;5883;48.818;9.114;2023-07-29T01:31:30;1.95;;;1.40;;
11653;SDS011;5883;48.818;9.114;2023-07-29T01:34:17;2.95;;;1.30;;
11653;SDS011;5883;48.818;9.114;2023-07-29T01:37:06;1.77;;;1.38;;
11653;SDS011;5883;48.818;9.114;2023-07-29T01:39:54;1.20;;;1.10;;
11653;SDS011;5883;48.818;9.114;2023-07-29T01:42:41;1.30;;;1.20;;
11653;SDS011;5883;48.818;9.114;2023-07-29T01:45:27;2.60;;;1.33;;
11653;SDS011;5883;48.818;9.114;2023-07-29T01:48:15;3.20;;;1.42;;
11653;SDS011;5883;48.818;9.114;2023-07-29T01:51:01;1.73;;;1.30;;
11653;SDS011;5883;48.818;9.114;2023-07-29T01:53:46;3.08;;;1.13;;
11653;SDS011;5883;48.818;9.114;2023-07-29T01:56:31;2.40;;;1.17;;
11653;SDS011;5883;48.818;9.114;2023-07-29T01:59:18;2.60;;;1.30;;
11653;SDS011;5883;48.818;9.114;2023-07-29T02:02:03;1.40;;;1.23;;
11653;SDS011;5883;48.818;9.114;2023-07-29T02:04:48;1.23;;;1.13;;
11653;SDS011;5883;48.818;9.114;2023-07-29T02:07:35;2.20;;;1.48;;
11653;SDS011;5883;48.818;9.114;2023-07-29T02:10:20;1.27;;;1.10;;
11653;SDS011;5883;48.818;9.114;2023-07-29T02:13:05;1.70;;;1.60;;
11653;SDS011;5883;48.818;9.114;2023-07-29T02:15:52;1.25;;;1.15;;
11653;SDS011;5883;48.818;9.114;2023-07-29T02:18:38;1.40;;;1.30;;
11653;SDS011;5883;48.818;9.114;2023-07-29T02:21:23;2.03;;;1.45;;
11653;SDS011;5883;48.818;9.114;2023-07-29T02:24:07;8.88;;;1.80;;
11653;SDS011;5883;48.818;9.114;2023-07-29T02:26:52;2.58;;;1.17;;
11653;SDS011;5883;48.818;9.114;2023-07-29T02:29:38;4.03;;;1.50;;
11653;SDS011;5883;48.818;9.114;2023-07-29T02:32:24;1.92;;;1.35;;
11653;SDS011;5883;48.818;9.114;2023-07-29T02:35:09;1.35;;;1.25;;
11653;SDS011;5883;48.818;9.114;2023-07-29T02:37:55;1.50;;;1.40;;
11653;SDS011;5883;48.818;9.114;2023-07-29T02:40:40;3.25;;;1.40;;
11653;SDS011;5883;48.818;9.114;2023-07-29T02:43:25;1.67;;;1.50;;
11653;SDS011;5883;48.818;9.114;2023-07-29T02:46:10;1.55;;;1.27;;
11653;SDS011;5883;48.818;9.114;2023-07-29T02:48:56;4.30;;;1.20;;
11653;SDS011;5883;48.818;9.114;2023-07-29T02:51:41;2.40;;;1.50;;
11653;SDS011;5883;48.818;9.114;2023-07-29T02:54:26;1.77;;;1.48;;
11653;SDS011;5883;48.818;9.114;2023-07-29T02:57:11;2.83;;;1.50;;
11653;SDS011;5883;48.818;9.114;2023-07-29T02:59:56;2.30;;;1.63;;
11653;SDS011;5883;48.818;9.114;2023-07-29T03:02:41;1.40;;;1.17;;
11653;SDS011;5883;48.818;9.114;2023-07-29T03:05:28;1.77;;;1.50;;
11653;SDS011;5883;48.818;9.114;2023-07-29T03:08:14;2.35;;;1.52;;
11653;SDS011;5883;48.818;9.114;2023-07-29T03:11:04;1.35;;;1.25;;
11653;SDS011;5883;48.818;9.114;2023-07-29T03:13:49;2.58;;;1.20;;
11653;SDS011;5883;48.818;9.114;2023-07-29T03:16:34;1.67;;;1.48;;
11653;SDS011;5883;48.818;9.114;2023-07-29T03:19:19;3.40;;;1.40;;
11653;SDS011;5883;48.818;9.114;2023-07-29T03:22:06;2.17;;;1.70;;
11653;SDS011;5883;48.818;9.114;2023-07-29T03:24:51;1.75;;;1.25;;
11653;SDS011;5883;48.818;9.114;2023-07-29T03:27:36;1.40;;;1.30;;
11653;SDS011;5883;48.818;9.114;2023-07-29T03:30:23;2.38;;;1.70;;
11653;SDS011;5883;48.818;9.114;2023-07-29T03:33:08;2.85;;;1.60;;
11653;SDS011;5883;48.818;9.114;2023-07-29T03:35:53;2.63;;;1.60;;
11653;SDS011;5883;48.818;9.114;2023-07-29T03:38:39;1.70;;;1.58;;
11653;SDS011;5883;48.818;9.114;2023-07-29T03:41:24;1.70;;;1.55;;
11653;SDS011;5883;48.818;9.114;2023-07-29T03:44:09;2.65;;;1.55;;
11653;SDS011;5883;48.818;9.114;2023-07-29T03:46:55;2.08;;;1.60;;
11653;SDS011;5883;48.818;9.114;2023-07-29T03:49:40;3.00;;;1.23;;
11653;SDS011;5883;48.818;9.114;2023-07-29T03:52:25;2.25;;;1.52;;
11653;SDS011;5883;48.818;9.114;2023-07-29T03:55:11;1.40;;;1.30;;
11653;SDS011;5883;48.818;9.114;2023-07-29T03:57:56;1.52;;;1.42;;
11653;SDS011;5883;48.818;9.114;2023-07-29T04:00:41;3.70;;;1.60;;
11653;SDS011;5883;48.818;9.114;2023-07-29T04:03:26;3.33;;;1.67;;
11653;SDS011;5883;48.818;9.114;2023-07-29T04:06:11;1.70;;;1.50;;
11653;SDS011;5883;48.818;9.114;2023-07-29T04:08:56;2.42;;;1.70;;
11653;SDS011;5883;48.818;9.114;2023-07-29T04:11:43;2.20;;;1.58;;
11653;SDS011;5883;48.818;9.114;2023-07-29T04:14:28;1.73;;;1.60;;
11653;SDS011;5883;48.818;9.114;2023-07-29T04:17:13;2.00;;;1.70;;
11653;SDS011;5883;48.818;9.114;2023-07-29T04:19:58;4.32;;;1.77;;
11653;SDS011;5883;48.818;9.114;2023-07-29T04:22:43;7.25;;;1.38;;
11653;SDS011;5883;48.818;9.114;2023-07-29T04:25:28;4.00;;;1.88;;
11653;SDS011;5883;48.818;9.114;2023-07-29T04:28:14;4.25;;;1.88;;
11653;SDS011;5883;48.818;9.114;2023-07-29T04:30:59;4.60;;;1.75;;
11653;SDS011;5883;48.818;9.114;2023-07-29T04:33:44;2.92;;;1.75;;
11653;SDS011;5883;48.818;9.114;2023-07-29T04:36:29;3.38;;;1.60;;
11653;SDS011;5883;48.818;9.114;2023-07-29T04:39:14;10.60;;;1.83;;
11653;SDS011;5883;48.818;9.114;2023-07-29T04:42:01;3.25;;;2.03;;
11653;SDS011;5883;48.818;9.114;2023-07-29T04:44:47;2.75;;;1.60;;
11653;SDS011;5883;48.818;9.114;2023-07-29T04:47:33;6.78;;;1.92;;
11653;SDS011;5883;48.818;9.114;2023-07-29T04:50:17;3.15;;;1.92;;
11653;SDS011;5883;48.818;9.114;2023-07-29T04:53:02;4.03;;;1.70;;
11653;SDS011;5883;48.818;9.114;2023-07-29T04:55:47;4.97;;;1.77;;
11653;SDS011;5883;48.818;9.114;2023-07-29T04:58:32;1.70;;;1.50;;
11653;SDS011;5883;48.818;9.114;2023-07-29T05:01:20;5.10;;;2.05;;
11653;SDS011;5883;48.818;9.114;2023-07-29T05:04:06;5.38;;;1.90;;
11653;SDS011;5883;48.818;9.114;2023-07-29T05:06:51;2.25;;;1.63;;
11653;SDS011;5883;48.818;9.114;2023-07-29T05:09:36;4.25;;;1.70;;
11653;SDS011;5883;48.818;9.114;2023-07-29T05:12:22;5.25;;;1.98;;
11653;SDS011;5883;48.818;9.114;2023-07-29T05:15:08;2.28;;;1.73;;
11653;SDS011;5883;48.818;9.114;2023-07-29T05:17:54;2.22;;;2.00;;
11653;SDS011;5883;48.818;9.114;2023-07-29T05:20:39;2.63;;;1.73;;
11653;SDS011;5883;48.818;9.114;2023-07-29T05:23:24;3.65;;;1.67;;
11653;SDS011;5883;48.818;9.114;2023-07-29T05:26:09;3.40;;;2.00;;
11653;SDS011;5883;48.818;9.114;2023-07-29T05:28:54;2.55;;;1.75;;
11653;SDS011;5883;48.818;9.114;2023-07-29T05:31:40;4.15;;;2.22;;
11653;SDS011;5883;48.818;9.114;2023-07-29T05:34:26;4.93;;;1.95;;
11653;SDS011;5883;48.818;9.114;2023-07-29T05:37:11;1.98;;;1.75;;
11653;SDS011;5883;48.818;9.114;2023-07-29T05:39:57;2.67;;;1.85;;
11653;SDS011;5883;48.818;9.114;2023-07-29T05:42:42;2.15;;;1.63;;
11653;SDS011;5883;48.818;9.114;2023-07-29T05:45:27;2.75;;;1.48;;
11653;SDS011;5883;48.818;9.114;2023-07-29T05:48:14;1.65;;;1.48;;
11653;SDS011;5883;48.818;9.114;2023-07-29T05:51:01;3.05;;;1.88;;
11653;SDS011;5883;48.818;9.114;2023-07-29T05:53:46;4.50;;;1.70;;
11653;SDS011;5883;48.818;9.114;2023-07-29T05:56:31;1.42;;;1.08;;
11653;SDS011;5883;48.818;9.114;2023-07-29T05:59:16;1.45;;;1.27;;
11653;SDS011;5883;48.818;9.114;2023-07-29T06:02:02;2.55;;;1.58;;
11653;SDS011;5883;48.818;9.114;2023-07-29T06:04:47;2.28;;;1.38;;
11653;SDS011;5883;48.818;9.114;2023-07-29T06:07:33;3.03;;;1.27;;
11653;SDS011;5883;48.818;9.114;2023-07-29T06:10:18;1.30;;;1.20;;
11653;SDS011;5883;48.818;9.114;2023-07-29T06:13:03;5.68;;;1.33;;
11653;SDS011;5883;48.818;9.114;2023-07-29T06:15:48;3.88;;;1.42;;
11653;SDS011;5883;48.818;9.114;2023-07-29T06:18:33;3.90;;;1.45;;
11653;SDS011;5883;48.818;9.114;2023-07-29T06:21:18;1.20;;;1.00;;
11653;SDS011;5883;48.818;9.114;2023-07-29T06:24:05;4.03;;;1.30;;
11653;SDS011;5883;48.818;9.114;2023-07-29T06:26:50;3.40;;;1.10;;
11653;SDS011;5883;48.818;9.114;2023-07-29T06:29:35;2.40;;;1.15;;
11653;SDS011;5883;48.818;9.114;2023-07-29T06:32:21;1.27;;;1.13;;
11653;SDS011;5883;48.818;9.114;2023-07-29T06:35:07;3.13;;;1.40;;
11653;SDS011;5883;48.818;9.114;2023-07-29T06:37:52;1.20;;;1.10;;
11653;SDS011;5883;48.818;9.114;2023-07-29T06:40:39;1.55;;;1.30;;
11653;SDS011;5883;48.818;9.114;2023-07-29T06:43:24;1.42;;;1.30;;
11653;SDS011;5883;48.818;9.114;2023-07-29T06:46:09;3.13;;;1.38;;
11653;SDS011;5883;48.818;9.114;2023-07-29T06:48:54;2.42;;;1.27;;
11653;SDS011;5883;48.818;9.114;2023-07-29T06:51:39;1.92;;;1.40;;
11653;SDS011;5883;48.818;9.114;2023-07-29T06:54:24;1.98;;;1.30;;
11653;SDS011;5883;48.818;9.114;2023-07-29T06:57:11;3.05;;;1.20;;
11653;SDS011;5883;48.818;9.114;2023-07-29T06:59:56;6.05;;;1.40;;
11653;SDS011;5883;48.818;9.114;2023-07-29T07:02:41;1.88;;;1.45;;
11653;SDS011;5883;48.818;9.114;2023-07-29T07:05:27;1.52;;;1.00;;
11653;SDS011;5883;48.818;9.114;2023-07-29T07:08:12;1.55;;;1.38;;
11653;SDS011;5883;48.818;9.114;2023-07-29T07:10:57;1.30;;;1.20;;
11653;SDS011;5883;48.818;9.114;2023-07-29T07:13:43;1.30;;;1.15;;
11653;SDS011;5883;48.818;9.114;2023-07-29T07:16:28;1.80;;;1.27;;
11653;SDS011;5883;48.818;9.114;2023-07-29T07:19:13;3.00;;;1.40;;
11653;SDS011;5883;48.818;9.114;2023-07-29T07:21:59;1.80;;;1.27;;
11653;SDS011;5883;48.818;9.114;2023-07-29T07:24:44;1.73;;;1.30;;
11653;SDS011;5883;48.818;9.114;2023-07-29T07:27:29;3.22;;;1.50;;
11653;SDS011;5883;48.818;9.114;2023-07-29T07:30:16;2.88;;;1.35;;
11653;SDS011;5883;48.818;9.114;2023-07-29T07:33:01;1.85;;;1.30;;
11653;SDS011;5883;48.818;9.114;2023-07-29T07:35:46;1.88;;;1.10;;
11653;SDS011;5883;48.818;9.114;2023-07-29T07:38:31;1.60;;;1.40;;
11653;SDS011;5883;48.818;9.114;2023-07-29T07:41:15;1.98;;;1.30;;
11653;SDS011;5883;48.818;9.114;2023-07-29T07:44:00;3.63;;;1.13;;
11653;SDS011;5883;48.818;9.114;2023-07-29T07:46:47;1.75;;;1.30;;
11653;SDS011;5883;48.818;9.114;2023-07-29T07:49:32;1.10;;;1.00;;
11653;SDS011;5883;48.818;9.114;2023-07-29T07:52:17;2.00;;;1.38;;
11653;SDS011;5883;48.818;9.114;2023-07-29T07:55:03;1.83;;;0.75;;
11653;SDS011;5883;48.818;9.114;2023-07-29T07:57:48;2.67;;;1.00;;
11653;SDS011;5883;48.818;9.114;2023-07-29T08:00:34;1.98;;;0.90;;
11653;SDS011;5883;48.818;9.114;2023-07-29T08:03:20;3.00;;;0.95;;
11653;SDS011;5883;48.818;9.114;2023-07-29T08:06:05;1.15;;;0.90;;
11653;SDS011;5883;48.818;9.114;2023-07-29T08:08:50;1.20;;;0.63;;
11653;SDS011;5883;48.818;9.114;2023-07-29T08:11:35;1.13;;;0.70;;
11653;SDS011;5883;48.818;9.114;2023-07-29T08:14:20;1.67;;;0.90;;
11653;SDS011;5883;48.818;9.114;2023-07-29T08:17:05;1.15;;;0.88;;
11653;SDS011;5883;48.818;9.114;2023-07-29T08:19:51;2.42;;;0.80;;
11653;SDS011;5883;48.818;9.114;2023-07-29T08:22:36;1.10;;;1.00;;
11653;SDS011;5883;48.818;9.114;2023-07-29T08:25:22;1.10;;;1.00;;
11653;SDS011;5883;48.818;9.114;2023-07-29T08:28:07;1.08;;;0.88;;
11653;SDS011;5883;48.818;9.114;2023-07-29T08:30:52;1.33;;;0.80;;
11653;SDS011;5883;48.818;9.114;2023-07-29T08:33:36;3.28;;;1.70;;
11653;SDS011;5883;48.818;9.114;2023-07-29T08:36:23;1.60;;;0.90;;
11653;SDS011;5883;48.818;9.114;2023-07-29T08:39:08;1.58;;;0.90;;
11653;SDS011;5883;48.818;9.114;2023-07-29T08:41:54;2.90;;;0.90;;
11653;SDS011;5883;48.818;9.114;2023-07-29T08:44:42;1.55;;;0.90;;
11653;SDS011;5883;48.818;9.114;2023-07-29T08:47:27;1.20;;;0.80;;
11653;SDS011;5883;48.818;9.114;2023-07-29T08:50:12;2.55;;;0.80;;
11653;SDS011;5883;48.818;9.114;2023-07-29T08:53:00;0.93;;;0.80;;
11653;SDS011;5883;48.818;9.114;2023-07-29T08:55:47;2.22;;;0.73;;
11653;SDS011;5883;48.818;9.114;2023-07-29T08:58:32;1.77;;;0.77;;
11653;SDS011;5883;48.818;9.114;2023-07-29T09:01:18;1.10;;;0.60;;
11653;SDS011;5883;48.818;9.114;2023-07-29T09:04:03;1.52;;;1.00;;
11653;SDS011;5883;48.818;9.114;2023-07-29T09:06:48;0.90;;;0.77;;
11653;SDS011;5883;48.818;9.114;2023-07-29T09:09:36;1.20;;;0.77;;
11653;SDS011;5883;48.818;9.114;2023-07-29T09:12:21;0.82;;;0.77;;
11653;SDS011;5883;48.818;9.114;2023-07-29T09:15:06;1.70;;;0.85;;
11653;SDS011;5883;48.818;9.114;2023-07-29T09:17:52;2.08;;;0.70;;
11653;SDS011;5883;48.818;9.114;2023-07-29T09:20:37;1.05;;;0.70;;
11653;SDS011;5883;48.818;9.114;2023-07-29T09:23:22;0.80;;;0.75;;
11653;SDS011;5883;48.818;9.114;2023-07-29T09:26:10;1.13;;;0.85;;
11653;SDS011;5883;48.818;9.114;2023-07-29T09:28:55;0.73;;;0.70;;
11653;SDS011;5883;48.818;9.114;2023-07-29T09:31:43;0.90;;;0.70;;
11653;SDS011;5883;48.818;9.114;2023-07-29T09:34:27;0.93;;;0.75;;
11653;SDS011;5883;48.818;9.114;2023-07-29T09:37:17;1.92;;;0.90;;
11653;SDS011;5883;48.818;9.114;2023-07-29T09:40:02;1.33;;;0.98;;
11653;SDS011;5883;48.818;9.114;2023-07-29T09:42:49;0.90;;;0.70;;
11653;SDS011;5883;48.818;9.114;2023-07-29T09:45:35;3.20;;;0.80;;
11653;SDS011;5883;48.818;9.114;2023-07-29T09:48:22;1.67;;;1.00;;
11653;SDS011;5883;48.818;9.114;2023-07-29T09:51:11;2.70;;;0.90;;
11653;SDS011;5883;48.818;9.114;2023-07-29T09:53:56;2.17;;;0.93;;
11653;SDS011;5883;48.818;9.114;2023-07-29T09:56:42;1.27;;;0.90;;
11653;SDS011;5883;48.818;9.114;2023-07-29T09:59:29;0.90;;;0.70;;
11653;SDS011;5883;48.818;9.114;2023-07-29T10:02:18;4.35;;;1.08;;
11653;SDS011;5883;48.818;9.114;2023-07-29T10:05:05;3.10;;;1.35;;
11653;SDS011;5883;48.818;9.114;2023-07-29T10:07:52;0.90;;;0.80;;
11653;SDS011;5883;48.818;9.114;2023-07-29T10:10:39;1.00;;;0.90;;
11653;SDS011;5883;48.818;9.114;2023-07-29T10:13:26;1.13;;;1.00;;
11653;SDS011;5883;48.818;9.114;2023-07-29T10:16:13;1.45;;;0.70;;
11653;SDS011;5883;48.818;9.114;2023-07-29T10:18:58;2.92;;;0.68;;
11653;SDS011;5883;48.818;9.114;2023-07-29T10:21:44;1.52;;;0.73;;
11653;SDS011;5883;48.818;9.114;2023-07-29T10:24:29;0.50;;;0.50;;
11653;SDS011;5883;48.818;9.114;2023-07-29T10:27:14;0.82;;;0.60;;
11653;SDS011;5883;48.818;9.114;2023-07-29T10:30:02;1.00;;;0.90;;
11653;SDS011;5883;48.818;9.114;2023-07-29T10:32:49;1.50;;;0.82;;
11653;SDS011;5883;48.818;9.114;2023-07-29T10:35:34;2.08;;;0.70;;
11653;SDS011;5883;48.818;9.114;2023-07-29T10:38:21;2.25;;;0.70;;
11653;SDS011;5883;48.818;9.114;2023-07-29T10:41:06;1.13;;;1.00;;
11653;SDS011;5883;48.818;9.114;2023-07-29T10:43:51;1.15;;;0.93;;
11653;SDS011;5883;48.818;9.114;2023-07-29T10:46:36;1.05;;;0.90;;
11653;SDS011;5883;48.818;9.114;2023-07-29T10:49:24;0.85;;;0.80;;
11653;SDS011;5883;48.818;9.114;2023-07-29T10:52:16;1.02;;;0.90;;
11653;SDS011;5883;48.818;9.114;2023-07-29T10:55:01;1.13;;;1.02;;
11653;SDS011;5883;48.818;9.114;2023-07-29T10:57:47;0.70;;;0.60;;
11653;SDS011;5883;48.818;9.114;2023-07-29T11:00:32;0.98;;;0.90;;
11653;SDS011;5883;48.818;9.114;2023-07-29T11:03:18;1.00;;;0.90;;
11653;SDS011;5883;48.818;9.114;2023-07-29T11:06:05;1.27;;;0.80;;
11653;SDS011;5883;48.818;9.114;2023-07-29T11:08:50;1.45;;;1.10;;
11653;SDS011;5883;48.818;9.114;2023-07-29T11:11:36;1.67;;;0.80;;
11653;SDS011;5883;48.818;9.114;2023-07-29T11:14:23;2.85;;;1.00;;
11653;SDS011;5883;48.818;9.114;2023-07-29T11:17:09;1.50;;;0.90;;
11653;SDS011;5883;48.818;9.114;2023-07-29T11:19:54;1.05;;;0.80;;
11653;SDS011;5883;48.818;9.114;2023-07-29T11:22:42;1.55;;;1.08;;
11653;SDS011;5883;48.818;9.114;2023-07-29T11:25:28;1.00;;;0.88;;
11653;SDS011;5883;48.818;9.114;2023-07-29T11:28:14;1.90;;;0.90;;
11653;SDS011;5883;48.818;9.114;2023-07-29T11:30:59;1.55;;;0.82;;
11653;SDS011;5883;48.818;9.114;2023-07-29T11:33:44;0.80;;;0.80;;
11653;SDS011;5883;48.818;9.114;2023-07-29T11:36:29;0.88;;;0.70;;
11653;SDS011;5883;48.818;9.114;2023-07-29T11:39:16;0.98;;;0.80;;
11653;SDS011;5883;48.818;9.114;2023-07-29T11:42:01;2.30;;;0.90;;
11653;SDS011;5883;48.818;9.114;2023-07-29T11:44:45;1.05;;;0.90;;
11653;SDS011;5883;48.818;9.114;2023-07-29T11:47:31;1.42;;;1.05;;
11653;SDS011;5883;48.818;9.114;2023-07-29T11:50:19;1.02;;;0.90;;
11653;SDS011;5883;48.818;9.114;2023-07-29T11:53:04;1.23;;;1.00;;
11653;SDS011;5883;48.818;9.114;2023-07-29T11:55:51;2.60;;;1.10;;
11653;SDS011;5883;48.818;9.114;2023-07-29T11:58:37;1.90;;;0.80;;
11653;SDS011;5883;48.818;9.114;2023-07-29T12:01:22;1.05;;;0.93;;
11653;SDS011;5883;48.818;9.114;2023-07-29T12:04:07;2.15;;;1.00;;
11653;SDS011;5883;48.818;9.114;2023-07-29T12:06:52;0.90;;;0.82;;
11653;SDS011;5883;48.818;9.114;2023-07-29T12:09:37;1.70;;;0.93;;
11653;SDS011;5883;48.818;9.114;2023-07-29T12:12:24;1.48;;;1.08;;
11653;SDS011;5883;48.818;9.114;2023-07-29T12:15:09;1.52;;;1.00;;
11653;SDS011;5883;48.818;9.114;2023-07-29T12:17:55;1.17;;;1.00;;
11653;SDS011;5883;48.818;9.114;2023-07-29T12:20:43;2.85;;;1.10;;
11653;SDS011;5883;48.818;9.114;2023-07-29T12:23:28;1.30;;;0.98;;
11653;SDS011;5883;48.818;9.114;2023-07-29T12:26:13;1.20;;;1.10;;
11653;SDS011;5883;48.818;9.114;2023-07-29T12:29:10;1.10;;;1.00;;
11653;SDS011;5883;48.818;9.114;2023-07-29T12:31:59;13.30;;;1.63;;
11653;SDS011;5883;48.818;9.114;2023-07-29T12:34:45;1.83;;;1.10;;
11653;SDS011;5883;48.818;9.114;2023-07-29T12:37:32;1.50;;;1.08;;
11653;SDS011;5883;48.818;9.114;2023-07-29T12:40:21;1.75;;;1.25;;
11653;SDS011;5883;48.818;9.114;2023-07-29T12:43:07;1.55;;;1.10;;
11653;SDS011;5883;48.818;9.114;2023-07-29T12:45:54;1.20;;;1.10;;
11653;SDS011;5883;48.818;9.114;2023-07-29T12:48:40;0.85;;;0.80;;
11653;SDS011;5883;48.818;9.114;2023-07-29T12:51:25;1.50;;;1.20;;
11653;SDS011;5883;48.818;9.114;2023-07-29T12:54:10;4.07;;;1.70;;
11653;SDS011;5883;48.818;9.114;2023-07-29T12:56:55;1.40;;;0.88;;
11653;SDS011;5883;48.818;9.114;2023-07-29T12:59:40;1.55;;;1.30;;
11653;SDS011;5883;48.818;9.114;2023-07-29T13:02:27;2.30;;;1.00;;
11653;SDS011;5883;48.818;9.114;2023-07-29T13:05:12;2.47;;;1.00;;
11653;SDS011;5883;48.818;9.114;2023-07-29T13:07:58;1.00;;;0.90;;
11653;SDS011;5883;48.818;9.114;2023-07-29T13:10:43;2.00;;;1.38;;
11653;SDS011;5883;48.818;9.114;2023-07-29T13:13:28;1.90;;;1.27;;
11653;SDS011;5883;48.818;9.114;2023-07-29T13:16:13;4.80;;;0.90;;
11653;SDS011;5883;48.818;9.114;2023-07-29T13:18:59;1.23;;;1.13;;
11653;SDS011;5883;48.818;9.114;2023-07-29T13:21:45;2.65;;;1.10;;
11653;SDS011;5883;48.818;9.114;2023-07-29T13:24:29;1.33;;;0.95;;
11653;SDS011;5883;48.818;9.114;2023-07-29T13:27:16;1.23;;;1.10;;
11653;SDS011;5883;48.818;9.114;2023-07-29T13:30:01;1.15;;;1.05;;
11653;SDS011;5883;48.818;9.114;2023-07-29T13:32:46;2.53;;;0.88;;
11653;SDS011;5883;48.818;9.114;2023-07-29T13:35:32;1.85;;;1.10;;
11653;SDS011;5883;48.818;9.114;2023-07-29T13:38:17;6.80;;;1.33;;
11653;SDS011;5883;48.818;9.114;2023-07-29T13:41:03;1.85;;;1.10;;
11653;SDS011;5883;48.818;9.114;2023-07-29T13:43:49;1.42;;;1.33;;
11653;SDS011;5883;48.818;9.114;2023-07-29T13:46:34;2.35;;;1.10;;
11653;SDS011;5883;48.818;9.114;2023-07-29T13:49:19;1.23;;;1.10;;
11653;SDS011;5883;48.818;9.114;2023-07-29T13:52:05;1.25;;;1.08;;
11653;SDS011;5883;48.818;9.114;2023-07-29T13:54:51;1.23;;;1.13;;
11653;SDS011;5883;48.818;9.114;2023-07-29T13:57:36;1.33;;;1.20;;
11653;SDS011;5883;48.818;9.114;2023-07-29T14:00:22;1.30;;;1.20;;
11653;SDS011;5883;48.818;9.114;2023-07-29T14:03:08;1.00;;;0.90;;
11653;SDS011;5883;48.818;9.114;2023-07-29T14:05:53;1.55;;;1.20;;
11653;SDS011;5883;48.818;9.114;2023-07-29T14:08:39;1.50;;;1.17;;
11653;SDS011;5883;48.818;9.114;2023-07-29T14:11:25;1.20;;;0.98;;
11653;SDS011;5883;48.818;9.114;2023-07-29T14:14:10;1.23;;;0.90;;
11653;SDS011;5883;48.818;9.114;2023-07-29T14:16:55;1.50;;;0.90;;
11653;SDS011;5883;48.818;9.114;2023-07-29T14:19:40;1.25;;;1.15;;
11653;SDS011;5883;48.818;9.114;2023-07-29T14:22:25;2.85;;;1.20;;
11653;SDS011;5883;48.818;9.114;2023-07-29T14:25:11;1.92;;;1.20;;
11653;SDS011;5883;48.818;9.114;2023-07-29T14:27:57;1.02;;;0.88;;
11653;SDS011;5883;48.818;9.114;2023-07-29T14:30:42;2.33;;;1.30;;
11653;SDS011;5883;48.818;9.114;2023-07-29T14:33:27;1.38;;;1.15;;
11653;SDS011;5883;48.818;9.114;2023-07-29T14:36:12;1.45;;;1.08;;
11653;SDS011;5883;48.818;9.114;2023-07-29T14:38:57;2.22;;;1.35;;
11653;SDS011;5883;48.818;9.114;2023-07-29T14:41:43;1.45;;;1.23;;
11653;SDS011;5883;48.818;9.114;2023-07-29T14:44:28;1.45;;;1.10;;
11653;SDS011;5883;48.818;9.114;2023-07-29T14:47:13;1.42;;;1.00;;
11653;SDS011;5883;48.818;9.114;2023-07-29T14:49:59;1.50;;;1.30;;
11653;SDS011;5883;48.818;9.114;2023-07-29T14:52:43;2.72;;;1.25;;
11653;SDS011;5883;48.818;9.114;2023-07-29T14:55:29;1.75;;;1.20;;
11653;SDS011;5883;48.818;9.114;2023-07-29T14:58:16;2.70;;;1.00;;
11653;SDS011;5883;48.818;9.114;2023-07-29T15:01:01;2.15;;;1.00;;
11653;SDS011;5883;48.818;9.114;2023-07-29T15:03:47;1.48;;;1.20;;
11653;SDS011;5883;48.818;9.114;2023-07-29T15:06:32;2.35;;;1.30;;
11653;SDS011;5883;48.818;9.114;2023-07-29T15:09:17;1.42;;;1.20;;
11653;SDS011;5883;48.818;9.114;2023-07-29T15:12:02;1.90;;;1.13;;
11653;SDS011;5883;48.818;9.114;2023-07-29T15:14:49;1.20;;;1.10;;
11653;SDS011;5883;48.818;9.114;2023-07-29T15:17:34;1.17;;;0.90;;
11653;SDS011;5883;48.818;9.114;2023-07-29T15:20:21;3.05;;;1.10;;
11653;SDS011;5883;48.818;9.114;2023-07-29T15:23:06;2.40;;;1.33;;
11653;SDS011;5883;48.818;9.114;2023-07-29T15:25:51;1.33;;;1.20;;
11653;SDS011;5883;48.818;9.114;2023-07-29T15:28:36;2.97;;;1.58;;
11653;SDS011;5883;48.818;9.114;2023-07-29T15:31:23;1.65;;;1.30;;
11653;SDS011;5883;48.818;9.114;2023-07-29T15:34:08;1.85;;;1.30;;
11653;SDS011;5883;48.818;9.114;2023-07-29T15:36:53;1.42;;;1.20;;
11653;SDS011;5883;48.818;9.114;2023-07-29T15:39:38;1.83;;;1.17;;
11653;SDS011;5883;48.818;9.114;2023-07-29T15:42:23;3.92;;;1.20;;
11653;SDS011;5883;48.818;9.114;2023-07-29T15:45:09;7.70;;;2.22;;
11653;SDS011;5883;48.818;9.114;2023-07-29T15:47:55;2.13;;;1.30;;
11653;SDS011;5883;48.818;9.114;2023-07-29T15:50:41;1.30;;;1.15;;
11653;SDS011;5883;48.818;9.114;2023-07-29T15:53:27;1.30;;;1.00;;
11653;SDS011;5883;48.818;9.114;2023-07-29T15:56:13;1.40;;;1.30;;
11653;SDS011;5883;48.818;9.114;2023-07-29T15:58:58;1.80;;;1.30;;
11653;SDS011;5883;48.818;9.114;2023-07-29T16:01:43;2.47;;;1.20;;
11653;SDS011;5883;48.818;9.114;2023-07-29T16:04:30;1.63;;;1.15;;
11653;SDS011;5883;48.818;9.114;2023-07-29T16:07:15;1.83;;;1.20;;
11653;SDS011;5883;48.818;9.114;2023-07-29T16:10:00;2.70;;;1.17;;
11653;SDS011;5883;48.818;9.114;2023-07-29T16:12:45;1.58;;;1.33;;
11653;SDS011;5883;48.818;9.114;2023-07-29T16:15:30;2.28;;;1.10;;
11653;SDS011;5883;48.818;9.114;2023-07-29T16:18:16;1.60;;;1.20;;
11653;SDS011;5883;48.818;9.114;2023-07-29T16:21:03;2.38;;;1.55;;
11653;SDS011;5883;48.818;9.114;2023-07-29T16:23:49;2.20;;;1.38;;
11653;SDS011;5883;48.818;9.114;2023-07-29T16:26:36;4.05;;;1.40;;
11653;SDS011;5883;48.818;9.114;2023-07-29T16:29:21;1.40;;;1.30;;
11653;SDS011;5883;48.818;9.114;2023-07-29T16:32:06;1.33;;;1.20;;
11653;SDS011;5883;48.818;9.114;2023-07-29T16:34:51;1.33;;;1.15;;
11653;SDS011;5883;48.818;9.114;2023-07-29T16:37:38;1.30;;;1.20;;
11653;SDS011;5883;48.818;9.114;2023-07-29T16:40:23;1.65;;;1.30;;
11653;SDS011;5883;48.818;9.114;2023-07-29T16:43:08;1.58;;;1.20;;
11653;SDS011;5883;48.818;9.114;2023-07-29T16:45:53;2.97;;;1.02;;
11653;SDS011;5883;48.818;9.114;2023-07-29T16:48:38;1.38;;;1.20;;
11653;SDS011;5883;48.818;9.114;2023-07-29T16:51:23;1.60;;;1.30;;